Time;durP1;ratioP1;P1;durP2;ratioP2;P2;SDS_P1;SDS_P2;PMS_P1;PMS_P2;Temp;Humidity;BMP_temperature;BMP_pressure;BME280_temperature;BME280_humidity;BME280_pressure;Samples;Min_cycle;Max_cycle;Signal;HPM_P1;HPM_P2
2023/08/02 00:00:45;;;;;;;4.55;2.20;;;;;;;22.47;59.54;98679.25;4460553;32;33959;-68
2023/08/02 00:03:13;;;;;;;5.60;2.35;;;;;;;22.49;59.40;98665.38;4465416;32;34666;-68
2023/08/02 00:05:41;;;;;;;5.35;1.95;;;;;;;22.47;59.47;98676.50;4463870;32;33583;-68
2023/08/02 00:08:08;;;;;;;3.20;1.40;;;;;;;22.15;60.95;98672.00;4465281;32;34908;-68
2023/08/02 00:10:39;;;;;;;3.45;1.42;;;;;;;21.93;61.54;98680.47;4453058;32;34893;-68
2023/08/02 00:13:06;;;;;;;2.45;1.40;;;;;;;22.26;60.39;98685.00;4460404;32;33546;-68
2023/08/02 00:15:37;;;;;;;14.48;2.20;;;;;;;22.27;59.77;98692.94;4459237;32;33102;-67
2023/08/02 00:18:05;;;;;;;5.45;2.37;;;;;;;22.26;59.57;98702.19;4462165;32;33310;-68
2023/08/02 00:20:33;;;;;;;3.72;1.60;;;;;;;22.21;59.46;98710.16;4466439;32;34207;-67
2023/08/02 00:23:00;;;;;;;3.05;1.50;;;;;;;22.28;59.74;98712.87;4462719;32;34254;-69
2023/08/02 00:25:28;;;;;;;4.60;1.95;;;;;;;22.12;60.15;98713.28;4463855;32;33231;-67
2023/08/02 00:27:56;;;;;;;4.53;2.08;;;;;;;22.18;59.87;98728.81;4465045;32;34760;-68
2023/08/02 00:30:23;;;;;;;7.35;1.73;;;;;;;22.34;59.79;98717.44;4473465;32;33555;-66
2023/08/02 00:32:51;;;;;;;3.42;1.48;;;;;;;22.23;60.05;98723.56;4461960;32;33244;-67
2023/08/02 00:35:19;;;;;;;2.97;1.67;;;;;;;22.27;59.58;98709.28;4466522;32;33989;-67
2023/08/02 00:37:46;;;;;;;4.20;1.45;;;;;;;22.05;60.23;98718.75;4461928;32;34649;-67
2023/08/02 00:40:14;;;;;;;4.32;1.77;;;;;;;21.95;60.57;98719.19;4472972;32;33632;-67
2023/08/02 00:42:42;;;;;;;6.30;2.17;;;;;;;21.86;60.23;98715.03;4465941;32;35007;-67
2023/08/02 00:45:09;;;;;;;3.67;2.10;;;;;;;21.82;60.39;98713.78;4461092;32;33388;-64
2023/08/02 00:47:37;;;;;;;11.02;2.97;;;;;;;21.40;61.99;98713.19;4460357;32;34563;-67
2023/08/02 00:50:06;;;;;;;5.43;2.42;;;;;;;21.81;61.07;98714.84;4455015;32;35253;-68
2023/08/02 00:52:33;;;;;;;4.87;1.92;;;;;;;21.68;61.17;98707.53;4462292;32;33632;-67
2023/08/02 00:55:02;;;;;;;4.53;1.92;;;;;;;21.35;62.66;98707.56;4465228;32;34092;-68
2023/08/02 00:57:29;;;;;;;3.55;2.25;;;;;;;20.91;64.31;98707.06;4449448;32;33444;-71
2023/08/02 00:59:57;;;;;;;4.72;2.42;;;;;;;20.91;64.24;98704.34;4470142;32;34008;-67
2023/08/02 01:02:26;;;;;;;5.20;2.10;;;;;;;21.52;61.99;98716.97;4476552;32;33825;-68
2023/08/02 01:04:53;;;;;;;5.25;2.97;;;;;;;21.56;62.08;98720.94;4466065;32;33042;-67
2023/08/02 01:07:50;;;;;;;8.25;2.30;;;;;;;21.17;63.15;98722.56;4464062;32;34655;-68
2023/08/02 01:10:20;;;;;;;4.43;2.65;;;;;;;21.43;62.18;98718.22;4452547;32;35019;-69
2023/08/02 01:12:49;;;;;;;6.12;2.97;;;;;;;21.28;63.00;98723.00;4471744;32;34904;-68
2023/08/02 01:15:18;;;;;;;4.72;2.58;;;;;;;21.26;63.32;98731.38;4451880;32;33241;-68
2023/08/02 01:17:45;;;;;;;6.35;3.08;;;;;;;21.07;63.45;98722.16;4464956;32;33638;-68
2023/08/02 01:20:13;;;;;;;5.80;2.47;;;;;;;21.16;63.37;98722.78;4446776;32;35041;-68
2023/08/02 01:22:41;;;;;;;6.03;2.40;;;;;;;20.60;65.32;98731.22;4450906;32;33317;-68
2023/08/02 01:25:09;;;;;;;5.07;2.55;;;;;;;20.17;66.72;98732.28;4446335;32;33210;-68
2023/08/02 01:27:42;;;;;;;4.87;2.60;;;;;;;20.47;65.96;98729.28;4452114;32;34394;-68
2023/08/02 01:30:12;;;;;;;6.25;2.80;;;;;;;20.32;66.50;98732.16;4449927;32;34185;-68
2023/08/02 01:32:40;;;;;;;4.18;2.67;;;;;;;20.64;65.39;98727.91;4455906;32;34039;-68
2023/08/02 01:35:09;;;;;;;3.78;2.15;;;;;;;19.84;67.97;98732.09;4451365;32;34326;-68
2023/08/02 01:37:38;;;;;;;4.47;2.85;;;;;;;20.83;64.53;98725.44;4450666;32;33147;-68
2023/08/02 01:40:06;;;;;;;5.28;2.65;;;;;;;20.81;64.51;98731.09;4441875;32;35065;-69
2023/08/02 01:42:33;;;;;;;5.12;2.90;;;;;;;21.00;63.69;98720.47;4458917;32;33184;-69
2023/08/02 01:45:01;;;;;;;8.07;3.00;;;;;;;20.82;63.92;98729.22;4449899;32;32736;-69
2023/08/02 01:47:30;;;;;;;4.70;2.62;;;;;;;21.05;63.13;98726.94;4449186;32;33450;-69
2023/08/02 01:49:58;;;;;;;5.70;2.50;;;;;;;21.03;63.14;98725.50;4459714;32;34213;-68
2023/08/02 01:52:26;;;;;;;4.45;2.67;;;;;;;20.97;63.03;98726.31;4466276;32;33745;-68
2023/08/02 01:54:53;;;;;;;4.47;2.28;;;;;;;21.27;62.30;98733.06;4475933;32;34419;-68
2023/08/02 01:57:21;;;;;;;2.92;1.83;;;;;;;20.72;63.85;98737.75;4484128;32;33706;-68
2023/08/02 01:59:49;;;;;;;4.57;2.33;;;;;;;21.21;62.44;98733.88;4479219;32;33843;-67
2023/08/02 02:02:17;;;;;;;3.58;2.22;;;;;;;21.25;62.29;98728.84;4468170;32;33357;-69
2023/08/02 02:04:45;;;;;;;5.22;2.33;;;;;;;21.35;61.97;98730.16;4468113;32;33487;-70
2023/08/02 02:07:12;;;;;;;5.78;2.30;;;;;;;21.33;61.86;98739.56;4470629;32;33428;-69
2023/08/02 02:09:40;;;;;;;7.90;2.80;;;;;;;21.46;61.42;98744.19;4464709;32;35018;-69
2023/08/02 02:12:08;;;;;;;7.50;2.58;;;;;;;21.47;61.51;98743.97;4461681;32;33540;-70
2023/08/02 02:14:35;;;;;;;4.03;1.85;;;;;;;21.35;61.71;98743.78;4470886;32;35118;-69
2023/08/02 02:17:03;;;;;;;4.15;1.65;;;;;;;21.42;61.33;98742.94;4467787;32;33649;-69
2023/08/02 02:19:31;;;;;;;2.37;1.50;;;;;;;21.21;61.44;98743.94;4465948;32;33700;-69
2023/08/02 02:21:59;;;;;;;4.93;1.90;;;;;;;21.31;61.23;98755.25;4470589;32;34039;-70
2023/08/02 02:24:26;;;;;;;3.95;2.05;;;;;;;21.35;61.11;98748.38;4466455;32;31680;-68
2023/08/02 02:26:55;;;;;;;6.35;2.37;;;;;;;21.33;61.21;98751.28;4459935;32;33142;-70
2023/08/02 02:29:23;;;;;;;4.82;2.00;;;;;;;21.42;61.07;98743.78;4465991;32;33808;-69
2023/08/02 02:31:51;;;;;;;5.03;3.05;;;;;;;21.52;60.70;98755.09;4458715;32;33706;-69
2023/08/02 02:34:18;;;;;;;5.57;2.72;;;;;;;21.46;60.96;98761.34;4469707;32;33221;-70
2023/08/02 02:36:46;;;;;;;5.55;2.50;;;;;;;21.37;61.50;98762.59;4467235;32;33868;-70
2023/08/02 02:39:14;;;;;;;8.02;2.65;;;;;;;21.56;60.86;98761.78;4467662;32;34012;-69
2023/08/02 02:41:42;;;;;;;6.12;2.72;;;;;;;21.55;60.40;98760.09;4466152;32;32184;-70
2023/08/02 02:44:09;;;;;;;4.65;2.42;;;;;;;21.58;60.04;98773.31;4468728;32;33248;-69
2023/08/02 02:46:37;;;;;;;4.10;1.80;;;;;;;21.48;60.08;98772.06;4461398;32;34683;-69
2023/08/02 02:49:05;;;;;;;9.40;2.78;;;;;;;21.44;60.09;98771.59;4457258;32;35049;-69
2023/08/02 02:51:33;;;;;;;6.05;2.85;;;;;;;21.37;60.32;98773.50;4450463;32;33879;-68
2023/08/02 02:54:01;;;;;;;4.32;2.12;;;;;;;21.33;60.43;98778.47;4484115;32;34951;-69
2023/08/02 02:56:28;;;;;;;4.35;2.50;;;;;;;21.34;60.42;98773.87;4459813;32;33608;-69
2023/08/02 02:58:56;;;;;;;3.72;2.17;;;;;;;21.38;60.40;98783.34;4467914;32;34127;-68
2023/08/02 03:01:23;;;;;;;4.28;2.33;;;;;;;21.33;60.56;98781.22;4466202;32;34838;-69
2023/08/02 03:03:51;;;;;;;7.28;3.30;;;;;;;21.33;60.57;98777.66;4479109;32;33275;-69
2023/08/02 03:06:19;;;;;;;4.72;2.08;;;;;;;21.31;60.69;98788.72;4477216;32;34726;-68
2023/08/02 03:08:47;;;;;;;6.28;2.20;;;;;;;21.40;60.39;98800.28;4466697;32;34037;-68
2023/08/02 03:11:14;;;;;;;4.32;2.05;;;;;;;21.24;60.45;98790.59;4462553;32;33481;-68
2023/08/02 03:13:43;;;;;;;4.75;2.17;;;;;;;21.39;59.97;98793.19;4461469;32;33101;-68
2023/08/02 03:16:11;;;;;;;2.87;1.62;;;;;;;21.36;59.93;98797.16;4475616;32;33375;-68
2023/08/02 03:18:38;;;;;;;4.25;1.83;;;;;;;21.38;59.93;98802.41;4461877;32;34604;-67
2023/08/02 03:21:06;;;;;;;4.25;1.45;;;;;;;21.35;59.89;98800.94;4466374;32;33248;-67
2023/08/02 03:23:34;;;;;;;2.92;1.77;;;;;;;21.25;60.09;98808.62;4468233;32;34483;-67
2023/08/02 03:26:02;;;;;;;3.20;1.27;;;;;;;21.22;60.34;98803.59;4466255;32;33751;-68
2023/08/02 03:28:30;;;;;;;5.28;2.08;;;;;;;21.25;60.35;98805.91;4464993;32;34212;-67
2023/08/02 03:30:57;;;;;;;5.40;1.52;;;;;;;21.09;60.96;98807.13;4475843;32;34953;-66
2023/08/02 03:33:25;;;;;;;4.18;1.55;;;;;;;21.11;60.87;98810.47;4476836;32;33321;-66
2023/08/02 03:35:53;;;;;;;3.42;1.65;;;;;;;21.15;60.78;98813.59;4464675;32;33820;-66
2023/08/02 03:38:20;;;;;;;3.65;1.48;;;;;;;21.14;60.93;98817.38;4462309;32;35175;-66
2023/08/02 03:40:48;;;;;;;3.78;1.35;;;;;;;21.10;61.04;98819.69;4464950;32;35200;-66
2023/08/02 03:43:15;;;;;;;2.33;1.35;;;;;;;21.10;60.98;98808.78;4465810;32;34179;-68
2023/08/02 03:45:43;;;;;;;3.15;1.75;;;;;;;21.18;60.66;98805.88;4478455;32;34421;-68
2023/08/02 03:48:10;;;;;;;2.58;1.25;;;;;;;21.18;60.63;98813.19;4467395;32;34192;-69
2023/08/02 03:50:38;;;;;;;4.20;1.48;;;;;;;21.21;60.55;98809.22;4467094;32;32400;-69
2023/08/02 03:53:06;;;;;;;12.88;1.95;;;;;;;21.30;60.43;98810.72;4467207;32;34518;-68
2023/08/02 03:55:33;;;;;;;3.60;1.80;;;;;;;21.10;60.81;98807.97;4467858;32;34671;-69
2023/08/02 03:58:01;;;;;;;3.30;1.60;;;;;;;21.16;60.54;98805.25;4470336;32;32783;-68
2023/08/02 04:00:29;;;;;;;6.47;1.33;;;;;;;21.18;60.48;98811.31;4471354;32;33659;-69
2023/08/02 04:02:56;;;;;;;4.32;1.52;;;;;;;21.31;60.18;98809.66;4460807;32;33090;-68
2023/08/02 04:05:24;;;;;;;2.92;1.52;;;;;;;21.24;61.21;98817.81;4466879;32;33637;-69
2023/08/02 04:07:51;;;;;;;8.93;1.40;;;;;;;21.47;60.73;98822.91;4466725;32;34073;-68
2023/08/02 04:10:19;;;;;;;3.75;1.45;;;;;;;21.37;61.19;98817.03;4466070;32;33815;-68
2023/08/02 04:12:52;;;;;;;3.53;1.52;;;;;;;21.63;60.36;98824.41;4466294;32;33075;-69
2023/08/02 04:15:20;;;;;;;3.92;1.62;;;;;;;21.74;60.01;98823.78;4464937;32;34427;-68
2023/08/02 04:17:49;;;;;;;4.30;2.12;;;;;;;21.66;59.94;98818.53;4467737;32;34864;-70
2023/08/02 04:20:16;;;;;;;3.22;1.67;;;;;;;21.46;60.64;98823.97;4454510;32;33552;-69
2023/08/02 04:22:44;;;;;;;3.87;1.87;;;;;;;21.72;59.92;98820.44;4465674;32;33213;-68
2023/08/02 04:25:12;;;;;;;3.50;1.75;;;;;;;21.82;59.66;98834.47;4476789;32;34881;-69
2023/08/02 04:27:39;;;;;;;4.62;1.87;;;;;;;21.81;60.09;98837.41;4467619;32;33885;-68
2023/08/02 04:30:08;;;;;;;9.15;1.55;;;;;;;21.91;59.59;98837.81;4469559;32;33533;-68
2023/08/02 04:32:35;;;;;;;2.67;1.37;;;;;;;21.91;58.96;98829.66;4472581;32;33302;-67
2023/08/02 04:35:03;;;;;;;1.75;0.82;;;;;;;21.69;59.63;98839.06;4470227;32;34013;-68
2023/08/02 04:37:32;;;;;;;1.60;0.90;;;;;;;21.91;59.62;98837.00;4458132;32;34086;-68
2023/08/02 04:39:59;;;;;;;3.50;1.83;;;;;;;22.03;59.71;98833.44;4466815;32;33694;-69
2023/08/02 04:42:27;;;;;;;2.42;1.33;;;;;;;21.66;61.38;98829.44;4466798;32;33011;-68
2023/08/02 04:44:55;;;;;;;12.07;2.30;;;;;;;21.86;60.90;98821.25;4467101;32;34251;-67
2023/08/02 04:47:22;;;;;;;5.93;1.27;;;;;;;22.16;60.03;98824.44;4464776;32;35331;-66
2023/08/02 04:49:50;;;;;;;2.87;1.27;;;;;;;22.32;59.24;98828.59;4465740;32;34352;-66
2023/08/02 04:52:18;;;;;;;2.67;1.40;;;;;;;22.18;60.18;98821.47;4467023;32;34729;-66
2023/08/02 04:54:47;;;;;;;3.45;1.55;;;;;;;22.61;59.23;98826.44;4459332;32;33593;-67
2023/08/02 04:57:14;;;;;;;4.50;1.87;;;;;;;22.62;58.79;98828.94;4465730;32;34125;-66
2023/08/02 04:59:42;;;;;;;5.12;1.80;;;;;;;22.48;59.45;98824.56;4465963;32;33636;-66
2023/08/02 05:02:09;;;;;;;3.92;1.67;;;;;;;22.74;59.27;98829.09;4465228;32;33441;-66
2023/08/02 05:04:37;;;;;;;4.50;1.52;;;;;;;23.63;56.31;98830.97;4468549;32;34632;-66
2023/08/02 05:07:05;;;;;;;2.97;1.62;;;;;;;23.65;56.29;98831.56;4472800;32;34325;-67
2023/08/02 05:09:32;;;;;;;4.20;1.80;;;;;;;23.61;56.31;98830.34;4471439;32;34626;-66
2023/08/02 05:12:00;;;;;;;2.85;1.55;;;;;;;23.53;56.70;98830.62;4471176;32;33174;-66
2023/08/02 05:14:28;;;;;;;3.25;1.52;;;;;;;23.60;56.25;98825.94;4468434;32;33789;-66
2023/08/02 05:16:56;;;;;;;3.17;1.90;;;;;;;23.54;56.56;98839.66;4475640;32;34820;-66
2023/08/02 05:19:23;;;;;;;4.03;2.12;;;;;;;23.40;57.06;98825.22;4463989;32;34021;-66
2023/08/02 05:21:51;;;;;;;3.62;1.70;;;;;;;23.67;56.60;98832.19;4464324;32;36634;-65
2023/08/02 05:24:20;;;;;;;3.45;1.87;;;;;;;23.43;57.00;98833.81;4464068;32;34852;-66
2023/08/02 05:26:48;;;;;;;8.80;1.37;;;;;;;23.54;56.99;98840.47;4467898;32;34066;-66
2023/08/02 05:29:16;;;;;;;2.05;0.95;;;;;;;23.14;58.11;98840.69;4466879;32;33856;-67
2023/08/02 05:31:43;;;;;;;4.57;1.67;;;;;;;23.41;55.97;98846.03;4468968;32;33123;-67
2023/08/02 05:34:11;;;;;;;2.20;1.15;;;;;;;22.94;57.63;98846.25;4468368;32;33769;-67
2023/08/02 05:36:39;;;;;;;5.57;1.55;;;;;;;23.24;57.33;98843.81;4466695;32;33909;-67
2023/08/02 05:39:06;;;;;;;3.83;2.00;;;;;;;23.31;56.91;98846.50;4466748;32;33609;-67
2023/08/02 05:41:34;;;;;;;5.85;1.85;;;;;;;23.05;57.19;98850.22;4470493;32;34015;-66
2023/08/02 05:44:02;;;;;;;3.95;1.60;;;;;;;22.71;57.95;98854.09;4466281;32;34986;-65
2023/08/02 05:46:32;;;;;;;2.75;1.08;;;;;;;22.99;57.06;98856.53;4467168;32;34255;-66
2023/08/02 05:49:00;;;;;;;7.85;1.25;;;;;;;23.40;56.13;98858.00;4449480;32;33762;-66
2023/08/02 05:51:28;;;;;;;3.67;1.98;;;;;;;22.82;57.34;98855.31;4457581;32;33099;-66
2023/08/02 05:53:55;;;;;;;5.28;1.92;;;;;;;22.90;57.55;98853.19;4448567;32;33569;-66
2023/08/02 05:56:23;;;;;;;8.55;2.47;;;;;;;23.37;56.29;98859.28;4449563;32;34101;-66
2023/08/02 05:58:50;;;;;;;4.32;1.85;;;;;;;23.59;56.07;98858.91;4449146;32;33725;-67
2023/08/02 06:01:18;;;;;;;4.47;1.87;;;;;;;23.58;55.58;98860.81;4445673;32;33544;-67
2023/08/02 06:03:46;;;;;;;3.40;1.52;;;;;;;23.56;56.19;98865.66;4459443;32;33404;-66
2023/08/02 06:06:14;;;;;;;12.75;2.33;;;;;;;23.60;55.93;98864.19;4456695;32;34160;-66
2023/08/02 06:08:43;;;;;;;3.17;1.62;;;;;;;23.60;55.98;98869.66;4440925;32;33496;-67
2023/08/02 06:11:12;;;;;;;3.95;1.75;;;;;;;23.65;56.09;98871.69;4449309;32;33659;-66
2023/08/02 06:13:39;;;;;;;3.28;1.77;;;;;;;23.56;56.34;98875.75;4444944;32;33566;-65
2023/08/02 06:16:07;;;;;;;2.65;1.40;;;;;;;23.60;55.21;98883.31;4453195;32;33684;-65
2023/08/02 06:18:35;;;;;;;4.43;1.50;;;;;;;23.49;55.61;98882.09;4436000;32;33924;-66
2023/08/02 06:21:02;;;;;;;3.53;1.87;;;;;;;23.57;55.64;98885.63;4464124;32;32901;-66
2023/08/02 06:23:30;;;;;;;4.03;1.85;;;;;;;22.91;58.80;98890.31;4462244;32;34145;-65
2023/08/02 06:25:58;;;;;;;4.87;1.60;;;;;;;23.46;56.19;98885.25;4466985;32;32353;-65
2023/08/02 06:28:25;;;;;;;6.70;2.12;;;;;;;23.45;57.54;98882.75;4466541;32;33627;-65
2023/08/02 06:30:53;;;;;;;3.28;1.90;;;;;;;23.82;55.85;98889.28;4465466;32;33313;-67
2023/08/02 06:33:21;;;;;;;3.15;1.90;;;;;;;23.87;55.52;98897.63;4464713;32;33569;-66
2023/08/02 06:35:48;;;;;;;4.12;2.22;;;;;;;23.31;56.41;98894.81;4468470;32;35170;-66
2023/08/02 06:38:16;;;;;;;5.32;2.03;;;;;;;23.57;56.10;98899.28;4465968;32;33993;-66
2023/08/02 06:40:43;;;;;;;4.10;2.20;;;;;;;23.64;56.16;98897.34;4464695;32;34164;-65
2023/08/02 06:43:11;;;;;;;7.70;3.62;;;;;;;23.40;56.68;98905.28;4458065;32;33570;-66
2023/08/02 06:45:45;;;;;;;4.78;2.10;;;;;;;23.21;56.79;98903.44;4472555;32;34279;-66
2023/08/02 06:48:17;;;;;;;4.68;2.00;;;;;;;23.30;57.70;98899.41;4465343;32;34438;-66
2023/08/02 06:50:45;;;;;;;2.75;1.55;;;;;;;22.98;58.60;98903.97;4468652;32;32996;-67
2023/08/02 06:53:13;;;;;;;7.53;1.90;;;;;;;23.37;56.72;98904.84;4467037;32;33311;-67
2023/08/02 06:55:41;;;;;;;3.45;2.00;;;;;;;23.43;58.13;98898.50;4466055;32;34006;-67
2023/08/02 06:58:08;;;;;;;3.10;1.73;;;;;;;22.88;60.76;98898.09;4466170;32;34146;-69
2023/08/02 07:00:36;;;;;;;4.80;1.90;;;;;;;23.00;58.81;98901.88;4470158;32;34171;-70
2023/08/02 07:03:05;;;;;;;3.42;1.70;;;;;;;23.39;58.57;98902.75;4466904;32;34423;-67
2023/08/02 07:05:34;;;;;;;3.28;1.95;;;;;;;22.88;59.93;98907.09;4462135;32;33821;-69
2023/08/02 07:08:02;;;;;;;5.28;2.37;;;;;;;23.12;57.55;98907.50;4465415;32;33610;-66
2023/08/02 07:10:30;;;;;;;2.92;1.80;;;;;;;23.32;57.75;98908.25;4457306;32;33129;-66
2023/08/02 07:12:58;;;;;;;4.20;1.83;;;;;;;23.25;56.89;98910.16;4465220;32;33352;-70
2023/08/02 07:15:26;;;;;;;11.25;2.25;;;;;;;23.58;56.71;98915.44;4465881;32;33802;-67
2023/08/02 07:17:53;;;;;;;8.27;1.92;;;;;;;23.62;55.29;98913.94;4478724;32;33546;-66
2023/08/02 07:20:21;;;;;;;3.08;1.77;;;;;;;23.77;55.94;98904.66;4465450;32;34249;-70
2023/08/02 07:22:49;;;;;;;3.10;1.80;;;;;;;24.20;54.86;98907.47;4461616;32;34779;-66
2023/08/02 07:25:17;;;;;;;4.12;1.70;;;;;;;23.63;57.05;98909.34;4463316;32;34458;-66
2023/08/02 07:27:44;;;;;;;4.32;1.75;;;;;;;23.32;57.01;98905.50;4465256;32;33464;-66
2023/08/02 07:30:12;;;;;;;2.75;1.55;;;;;;;24.21;54.65;98900.12;4478188;32;33051;-66
2023/08/02 07:32:40;;;;;;;3.80;1.42;;;;;;;23.86;54.31;98903.34;4456713;32;33674;-67
2023/08/02 07:35:08;;;;;;;2.75;1.17;;;;;;;23.46;54.77;98907.09;4464942;32;33925;-67
2023/08/02 07:37:36;;;;;;;4.85;1.95;;;;;;;24.01;53.28;98906.56;4464898;32;33932;-67
2023/08/02 07:40:03;;;;;;;3.37;1.73;;;;;;;23.92;52.78;98899.72;4467510;32;33192;-67
2023/08/02 07:42:31;;;;;;;4.05;1.20;;;;;;;24.35;51.89;98905.25;4473302;32;33696;-67
2023/08/02 07:45:06;;;;;;;5.35;1.35;;;;;;;23.24;53.25;98901.16;4464970;32;35493;-67
2023/08/02 07:47:34;;;;;;;6.75;1.37;;;;;;;23.91;52.54;98901.59;4466374;32;33924;-66
2023/08/02 07:50:03;;;;;;;4.47;1.23;;;;;;;23.49;52.85;98903.94;4465229;32;33319;-67
2023/08/02 07:52:31;;;;;;;6.68;2.08;;;;;;;23.64;53.34;98906.38;4460431;32;214355;-67
2023/08/02 07:54:58;;;;;;;2.60;1.17;;;;;;;23.80;53.95;98915.16;4467144;32;33750;-66
2023/08/02 07:57:30;;;;;;;4.32;1.40;;;;;;;23.31;54.21;98903.84;4460332;32;33807;-67
2023/08/02 07:59:58;;;;;;;5.05;1.83;;;;;;;24.01;52.54;98917.50;4450636;32;33420;-66
2023/08/02 08:02:26;;;;;;;4.07;1.35;;;;;;;23.97;52.98;98902.59;4464165;32;33783;-67
2023/08/02 08:04:54;;;;;;;2.35;1.05;;;;;;;24.41;49.91;98906.28;4457644;32;33933;-67
2023/08/02 08:07:25;;;;;;;2.08;1.25;;;;;;;24.24;51.52;98903.25;4463682;32;33915;-66
2023/08/02 08:09:52;;;;;;;5.15;1.60;;;;;;;24.03;51.95;98892.69;4459656;32;32961;-65
2023/08/02 08:12:20;;;;;;;3.33;1.25;;;;;;;23.97;51.98;98897.16;4462874;32;34683;-65
2023/08/02 08:14:47;;;;;;;2.42;0.98;;;;;;;24.71;51.56;98902.81;4461812;32;35157;-65
2023/08/02 08:17:15;;;;;;;4.85;1.52;;;;;;;24.63;49.31;98891.13;4471111;32;33881;-65
2023/08/02 08:19:43;;;;;;;4.22;1.23;;;;;;;24.00;51.64;98898.59;4471636;32;33101;-64
2023/08/02 08:22:10;;;;;;;2.37;1.00;;;;;;;23.96;50.73;98895.47;4466596;32;33524;-64
2023/08/02 08:24:38;;;;;;;2.58;1.12;;;;;;;24.22;50.55;98893.59;4466839;32;34116;-64
2023/08/02 08:27:06;;;;;;;2.20;0.98;;;;;;;24.45;50.94;98895.72;4467907;32;33526;-65
2023/08/02 08:29:33;;;;;;;6.62;1.37;;;;;;;24.72;50.17;98897.13;4465352;32;34156;-64
2023/08/02 08:32:01;;;;;;;3.62;1.30;;;;;;;24.32;50.98;98900.22;4465129;32;35225;-64
2023/08/02 08:34:29;;;;;;;3.67;2.12;;;;;;;24.34;47.86;98903.56;4467134;32;34211;-65
2023/08/02 08:36:56;;;;;;;1.85;0.98;;;;;;;24.53;49.72;98899.00;4466502;32;34886;-64
2023/08/02 08:39:24;;;;;;;3.67;1.65;;;;;;;24.73;49.25;98900.72;4475734;32;34397;-65
2023/08/02 08:41:52;;;;;;;3.15;1.33;;;;;;;24.99;48.77;98905.88;4463487;32;34697;-65
2023/08/02 08:44:19;;;;;;;5.60;1.87;;;;;;;25.14;48.47;98907.44;4459218;32;33291;-65
2023/08/02 08:46:47;;;;;;;2.95;1.58;;;;;;;24.78;47.41;98909.91;4455704;32;33757;-65
2023/08/02 08:49:15;;;;;;;3.90;1.27;;;;;;;25.32;47.30;98910.13;4452333;32;33406;-65
2023/08/02 08:51:46;;;;;;;4.65;1.83;;;;;;;25.38;47.67;98916.59;4465238;32;33948;-65
2023/08/02 08:54:23;;;;;;;6.47;1.60;;;;;;;25.79;46.98;98913.91;4460954;32;34015;-65
2023/08/02 08:56:52;;;;;;;3.17;1.35;;;;;;;25.31;48.26;98916.69;4458999;32;34901;-65
2023/08/02 08:59:19;;;;;;;5.87;1.50;;;;;;;25.17;48.00;98912.41;4466518;32;33514;-65
2023/08/02 09:01:47;;;;;;;6.95;1.70;;;;;;;25.77;47.93;98912.47;4444940;32;35018;-65
2023/08/02 09:04:15;;;;;;;11.35;1.60;;;;;;;25.72;46.94;98915.91;4443985;32;34309;-65
2023/08/02 09:06:43;;;;;;;5.97;1.45;;;;;;;25.82;47.49;98915.38;4461027;32;35178;-65
2023/08/02 09:09:14;;;;;;;3.12;1.08;;;;;;;25.05;48.64;98909.59;4466346;32;33111;-65
2023/08/02 09:11:42;;;;;;;2.92;1.15;;;;;;;25.82;46.04;98906.31;4454321;32;34063;-64
2023/08/02 09:14:15;;;;;;;1.98;1.15;;;;;;;25.94;45.49;98894.31;4460037;32;33675;-65
2023/08/02 09:16:59;;;;;;;3.90;1.10;;;;;;;26.11;43.64;98902.69;4462998;32;34606;-65
2023/08/02 09:19:29;;;;;;;2.37;1.20;;;;;;;25.95;44.03;98900.62;4465489;32;33498;-65
2023/08/02 09:22:16;;;;;;;2.30;1.08;;;;;;;26.20;44.67;98901.28;4461245;32;34927;-64
2023/08/02 09:24:44;;;;;;;3.58;1.40;;;;;;;25.79;43.66;98902.94;4445154;32;35014;-65
2023/08/02 09:27:14;;;;;;;3.08;1.02;;;;;;;25.94;45.35;98902.53;4441269;32;33676;-65
2023/08/02 09:29:52;;;;;;;2.95;1.45;;;;;;;26.54;43.47;98903.47;4446310;32;33546;-65
2023/08/02 09:32:22;;;;;;;2.97;1.50;;;;;;;26.17;44.50;98901.75;4448265;32;33843;-64
2023/08/02 09:34:52;;;;;;;3.65;1.33;;;;;;;26.75;42.69;98891.88;4446975;32;35103;-65
2023/08/02 09:37:34;;;;;;;3.67;1.42;;;;;;;26.67;42.48;98906.78;4447937;32;34395;-65
2023/08/02 09:40:09;;;;;;;3.42;1.35;;;;;;;26.96;41.82;98898.63;4442093;32;33156;-65
2023/08/02 09:42:37;;;;;;;2.03;1.10;;;;;;;27.38;40.44;98896.53;4435739;32;34455;-65
2023/08/02 09:45:06;;;;;;;2.60;1.27;;;;;;;27.66;39.69;98896.78;4446209;32;35530;-65
2023/08/02 09:47:33;;;;;;;2.37;0.98;;;;;;;27.21;41.22;98900.28;4440940;32;33796;-65
2023/08/02 09:50:20;;;;;;;5.00;1.65;;;;;;;27.73;39.67;98900.19;4446992;32;32973;-65
2023/08/02 09:52:48;;;;;;;3.75;1.80;;;;;;;27.35;39.85;98904.41;4447327;32;33568;-65
2023/08/02 09:55:16;;;;;;;2.30;1.02;;;;;;;27.58;40.37;98903.50;4444463;32;33831;-65
2023/08/02 09:57:45;;;;;;;2.80;1.12;;;;;;;27.31;38.68;98906.81;4438196;32;33597;-64
2023/08/02 10:00:14;;;;;;;4.55;1.15;;;;;;;28.06;37.48;98907.72;4441330;32;33398;-65
2023/08/02 10:02:42;;;;;;;2.85;1.20;;;;;;;28.33;36.55;98905.13;4440922;32;33697;-64
2023/08/02 10:05:12;;;;;;;3.20;1.33;;;;;;;28.19;37.48;98901.06;4447006;32;33994;-65
2023/08/02 10:07:52;;;;;;;4.10;1.65;;;;;;;28.44;36.37;98897.88;4449974;32;34572;-65
2023/08/02 10:10:29;;;;;;;5.68;1.60;;;;;;;28.32;38.24;98911.72;4435976;32;34333;-65
2023/08/02 10:13:18;;;;;;;3.97;1.75;;;;;;;28.18;37.58;98908.44;4435386;32;33879;-65
2023/08/02 10:15:49;;;;;;;5.30;1.65;;;;;;;28.27;37.40;98908.88;4429038;32;34628;-65
2023/08/02 10:18:17;;;;;;;1.75;1.00;;;;;;;28.54;37.19;98901.66;4441694;32;35473;-67
2023/08/02 10:20:48;;;;;;;1.75;0.95;;;;;;;28.55;36.06;98900.56;4449041;32;34387;-70
2023/08/02 10:23:15;;;;;;;2.10;1.25;;;;;;;28.20;37.04;98894.47;4448719;32;34614;-70
2023/08/02 10:25:44;;;;;;;2.70;1.15;;;;;;;28.20;34.68;98897.22;4468667;32;33700;-66
2023/08/02 10:28:12;;;;;;;3.47;1.52;;;;;;;28.68;34.82;98887.53;4466422;32;33332;-67
2023/08/02 10:30:40;;;;;;;1.77;1.00;;;;;;;28.47;34.75;98884.44;4453205;32;33285;-69
2023/08/02 10:33:21;;;;;;;2.45;1.17;;;;;;;28.51;35.87;98885.63;4447713;32;35131;-69
2023/08/02 10:36:01;;;;;;;3.47;1.50;;;;;;;28.83;34.73;98887.75;4470103;32;32568;-67
2023/08/02 10:38:47;;;;;;;3.92;1.67;;;;;;;28.91;34.43;98879.03;4466361;32;34564;-67
2023/08/02 10:41:20;;;;;;;3.05;1.60;;;;;;;28.51;33.66;98882.06;4462285;32;33149;-68
2023/08/02 10:43:53;;;;;;;3.95;1.48;;;;;;;28.94;33.86;98878.50;4464246;32;34479;-67
2023/08/02 10:46:29;;;;;;;3.00;1.42;;;;;;;29.34;34.12;98880.16;4467253;32;34932;-67
2023/08/02 10:49:09;;;;;;;3.22;1.25;;;;;;;29.42;34.31;98876.09;4457973;32;34780;-67
2023/08/02 10:51:37;;;;;;;4.43;1.58;;;;;;;29.45;33.00;98867.31;4455628;32;34415;-68
2023/08/02 10:54:19;;;;;;;2.28;1.23;;;;;;;28.63;34.27;98866.25;4465836;32;33860;-68
2023/08/02 10:57:07;;;;;;;2.37;1.10;;;;;;;29.21;32.53;98861.22;4466329;32;34836;-68
2023/08/02 10:59:35;;;;;;;2.30;1.08;;;;;;;28.71;31.92;98857.56;4387303;32;34959;-68
2023/08/02 11:02:08;;;;;;;2.35;1.20;;;;;;;28.84;32.09;98855.53;4385754;32;33260;-67
2023/08/02 11:04:37;;;;;;;3.40;1.05;;;;;;;28.84;31.59;98856.34;4387200;32;32751;-68
2023/08/02 11:07:21;;;;;;;2.55;1.05;;;;;;;29.46;32.47;98850.50;4388840;32;34848;-67
2023/08/02 11:09:55;;;;;;;2.40;1.25;;;;;;;29.15;30.98;98845.72;4388360;32;33799;-68
2023/08/02 11:12:23;;;;;;;;;;;;;;;28.93;31.42;98841.06;4391864;32;33830;-71
2023/08/02 11:14:51;;;;;;;2.05;1.12;;;;;;;29.46;30.88;98847.72;4384728;32;33864;-70
2023/08/02 11:17:21;;;;;;;2.85;1.40;;;;;;;29.44;30.49;98849.94;4386386;32;34598;-70
2023/08/02 11:19:53;;;;;;;3.47;1.33;;;;;;;29.48;32.07;98836.47;4385845;32;33634;-69
2023/08/02 11:22:25;;;;;;;3.97;1.12;;;;;;;28.55;32.07;98826.22;4384302;32;33909;-69
2023/08/02 11:24:56;;;;;;;2.33;0.90;;;;;;;29.24;31.18;98822.97;4384077;32;34672;-71
2023/08/02 11:27:26;;;;;;;2.45;1.17;;;;;;;29.47;31.24;98821.84;4387460;32;35277;-71
2023/08/02 11:30:20;;;;;;;2.65;1.20;;;;;;;29.07;32.23;98813.97;4381826;32;33857;-70
2023/08/02 11:32:53;;;;;;;2.58;1.10;;;;;;;29.41;30.74;98817.38;4387275;32;33425;-70
2023/08/02 11:35:21;;;;;;;7.53;1.37;;;;;;;28.86;31.57;98810.13;4387440;32;34869;-70
2023/08/02 11:37:49;;;;;;;3.50;0.98;;;;;;;29.67;29.63;98812.97;4442065;32;34783;-70
2023/08/02 11:40:16;;;;;;;4.37;1.20;;;;;;;29.55;30.97;98805.94;4453143;32;33938;-68
2023/08/02 11:42:53;;;;;;;3.17;1.23;;;;;;;29.27;29.91;98802.34;4451513;32;34250;-68